sensor_id;sensor_type;location;lat;lon;timestamp;P1;durP1;ratioP1;P2;durP2;ratioP2
21152;SDS011;10734;44.792;20.482;2023-01-01T00:01:20;51.53;;;25.85;;
21152;SDS011;10734;44.792;20.482;2023-01-01T00:03:48;51.13;;;27.92;;
21152;SDS011;10734;44.792;20.482;2023-01-01T00:06:14;57.03;;;30.30;;
21152;SDS011;10734;44.792;20.482;2023-01-01T00:08:41;52.10;;;27.55;;
21152;SDS011;10734;44.792;20.482;2023-01-01T00:11:08;53.55;;;27.67;;
21152;SDS011;10734;44.792;20.482;2023-01-01T00:13:36;45.92;;;26.33;;
21152;SDS011;10734;44.792;20.482;2023-01-01T00:16:04;42.95;;;24.58;;
21152;SDS011;10734;44.792;20.482;2023-01-01T00:18:30;38.30;;;22.63;;
21152;SDS011;10734;44.792;20.482;2023-01-01T00:21:01;40.22;;;23.23;;
21152;SDS011;10734;44.792;20.482;2023-01-01T00:23:28;39.25;;;22.05;;
21152;SDS011;10734;44.792;20.482;2023-01-01T00:25:55;38.47;;;21.85;;
21152;SDS011;10734;44.792;20.482;2023-01-01T00:28:21;44.92;;;25.77;;
21152;SDS011;10734;44.792;20.482;2023-01-01T00:30:48;46.20;;;25.38;;
21152;SDS011;10734;44.792;20.482;2023-01-01T00:33:14;60.78;;;31.50;;
21152;SDS011;10734;44.792;20.482;2023-01-01T00:35:41;52.08;;;29.77;;
21152;SDS011;10734;44.792;20.482;2023-01-01T00:38:08;51.40;;;26.98;;
21152;SDS011;10734;44.792;20.482;2023-01-01T00:40:34;57.00;;;29.25;;
21152;SDS011;10734;44.792;20.482;2023-01-01T00:43:01;52.88;;;27.63;;
21152;SDS011;10734;44.792;20.482;2023-01-01T00:45:27;51.55;;;26.92;;
21152;SDS011;10734;44.792;20.482;2023-01-01T00:47:54;42.88;;;24.50;;
21152;SDS011;10734;44.792;20.482;2023-01-01T00:50:20;63.67;;;33.35;;
21152;SDS011;10734;44.792;20.482;2023-01-01T00:52:47;43.38;;;23.40;;
21152;SDS011;10734;44.792;20.482;2023-01-01T00:55:14;40.10;;;22.52;;
21152;SDS011;10734;44.792;20.482;2023-01-01T00:57:41;53.72;;;26.17;;
21152;SDS011;10734;44.792;20.482;2023-01-01T01:00:07;60.90;;;30.75;;
21152;SDS011;10734;44.792;20.482;2023-01-01T01:02:34;67.80;;;36.47;;
21152;SDS011;10734;44.792;20.482;2023-01-01T01:05:01;75.28;;;40.63;;
21152;SDS011;10734;44.792;20.482;2023-01-01T01:07:36;77.03;;;43.22;;
21152;SDS011;10734;44.792;20.482;2023-01-01T01:10:02;85.85;;;46.60;;
21152;SDS011;10734;44.792;20.482;2023-01-01T01:12:29;85.43;;;41.42;;
21152;SDS011;10734;44.792;20.482;2023-01-01T01:14:56;115.90;;;61.10;;
21152;SDS011;10734;44.792;20.482;2023-01-01T01:17:22;153.60;;;81.60;;
21152;SDS011;10734;44.792;20.482;2023-01-01T01:19:49;162.38;;;87.47;;
21152;SDS011;10734;44.792;20.482;2023-01-01T01:22:15;200.32;;;108.63;;
21152;SDS011;10734;44.792;20.482;2023-01-01T01:24:41;182.02;;;100.15;;
21152;SDS011;10734;44.792;20.482;2023-01-01T01:27:08;168.88;;;92.78;;
21152;SDS011;10734;44.792;20.482;2023-01-01T01:29:34;174.15;;;92.65;;
21152;SDS011;10734;44.792;20.482;2023-01-01T01:32:01;188.85;;;99.45;;
21152;SDS011;10734;44.792;20.482;2023-01-01T01:34:27;183.85;;;95.40;;
21152;SDS011;10734;44.792;20.482;2023-01-01T01:36:54;139.30;;;74.38;;
21152;SDS011;10734;44.792;20.482;2023-01-01T01:39:21;148.23;;;75.97;;
21152;SDS011;10734;44.792;20.482;2023-01-01T01:41:47;132.45;;;71.25;;
21152;SDS011;10734;44.792;20.482;2023-01-01T01:46:59;135.85;;;72.03;;
21152;SDS011;10734;44.792;20.482;2023-01-01T01:49:28;159.50;;;82.50;;
21152;SDS011;10734;44.792;20.482;2023-01-01T01:51:55;157.23;;;81.65;;
21152;SDS011;10734;44.792;20.482;2023-01-01T01:54:23;135.60;;;72.80;;
21152;SDS011;10734;44.792;20.482;2023-01-01T01:57:01;145.88;;;77.90;;
21152;SDS011;10734;44.792;20.482;2023-01-01T01:59:29;151.43;;;78.47;;
21152;SDS011;10734;44.792;20.482;2023-01-01T02:02:13;163.63;;;88.07;;
21152;SDS011;10734;44.792;20.482;2023-01-01T02:04:41;175.05;;;95.65;;
21152;SDS011;10734;44.792;20.482;2023-01-01T02:07:08;165.98;;;86.15;;
21152;SDS011;10734;44.792;20.482;2023-01-01T02:09:34;158.30;;;90.07;;
21152;SDS011;10734;44.792;20.482;2023-01-01T02:12:01;145.13;;;82.63;;
21152;SDS011;10734;44.792;20.482;2023-01-01T02:14:27;165.38;;;89.30;;
21152;SDS011;10734;44.792;20.482;2023-01-01T02:16:55;166.43;;;87.55;;
21152;SDS011;10734;44.792;20.482;2023-01-01T02:22:01;141.30;;;74.60;;
21152;SDS011;10734;44.792;20.482;2023-01-01T02:26:58;139.88;;;76.97;;
21152;SDS011;10734;44.792;20.482;2023-01-01T02:29:37;150.70;;;81.72;;
21152;SDS011;10734;44.792;20.482;2023-01-01T02:32:13;177.95;;;93.03;;
21152;SDS011;10734;44.792;20.482;2023-01-01T02:34:43;165.90;;;86.95;;
21152;SDS011;10734;44.792;20.482;2023-01-01T02:37:12;130.95;;;70.07;;
21152;SDS011;10734;44.792;20.482;2023-01-01T02:39:41;149.93;;;81.00;;
21152;SDS011;10734;44.792;20.482;2023-01-01T02:42:09;172.40;;;93.10;;
21152;SDS011;10734;44.792;20.482;2023-01-01T02:44:38;176.88;;;92.55;;
21152;SDS011;10734;44.792;20.482;2023-01-01T02:47:14;210.55;;;109.82;;
21152;SDS011;10734;44.792;20.482;2023-01-01T02:49:46;204.23;;;110.13;;
21152;SDS011;10734;44.792;20.482;2023-01-01T02:52:23;210.73;;;115.75;;
21152;SDS011;10734;44.792;20.482;2023-01-01T02:54:59;218.73;;;119.07;;
21152;SDS011;10734;44.792;20.482;2023-01-01T02:57:45;202.00;;;109.78;;
21152;SDS011;10734;44.792;20.482;2023-01-01T03:00:14;190.23;;;101.85;;
21152;SDS011;10734;44.792;20.482;2023-01-01T03:03:18;171.15;;;89.65;;
21152;SDS011;10734;44.792;20.482;2023-01-01T03:11:34;160.20;;;90.28;;
21152;SDS011;10734;44.792;20.482;2023-01-01T03:14:23;176.05;;;98.13;;
21152;SDS011;10734;44.792;20.482;2023-01-01T03:19:27;168.70;;;91.97;;
21152;SDS011;10734;44.792;20.482;2023-01-01T03:22:00;173.38;;;94.40;;
21152;SDS011;10734;44.792;20.482;2023-01-01T03:26:56;187.75;;;99.05;;
21152;SDS011;10734;44.792;20.482;2023-01-01T03:29:24;199.35;;;106.50;;
21152;SDS011;10734;44.792;20.482;2023-01-01T03:31:54;213.63;;;112.82;;
21152;SDS011;10734;44.792;20.482;2023-01-01T03:34:24;203.25;;;109.60;;
21152;SDS011;10734;44.792;20.482;2023-01-01T03:36:53;213.35;;;114.53;;
21152;SDS011;10734;44.792;20.482;2023-01-01T03:39:23;223.98;;;118.15;;
21152;SDS011;10734;44.792;20.482;2023-01-01T03:46:51;231.93;;;120.88;;
21152;SDS011;10734;44.792;20.482;2023-01-01T03:49:18;229.57;;;121.93;;
21152;SDS011;10734;44.792;20.482;2023-01-01T03:59:52;191.90;;;102.28;;
21152;SDS011;10734;44.792;20.482;2023-01-01T04:02:21;186.13;;;100.78;;
21152;SDS011;10734;44.792;20.482;2023-01-01T04:04:52;173.43;;;94.78;;
21152;SDS011;10734;44.792;20.482;2023-01-01T04:07:18;176.23;;;92.55;;
21152;SDS011;10734;44.792;20.482;2023-01-01T04:09:46;173.60;;;88.03;;
21152;SDS011;10734;44.792;20.482;2023-01-01T04:12:14;171.00;;;87.18;;
21152;SDS011;10734;44.792;20.482;2023-01-01T04:14:41;173.07;;;87.88;;
21152;SDS011;10734;44.792;20.482;2023-01-01T04:17:08;149.15;;;81.68;;
21152;SDS011;10734;44.792;20.482;2023-01-01T04:19:35;166.07;;;86.50;;
21152;SDS011;10734;44.792;20.482;2023-01-01T04:22:02;144.48;;;77.15;;
21152;SDS011;10734;44.792;20.482;2023-01-01T04:24:29;147.02;;;71.05;;
21152;SDS011;10734;44.792;20.482;2023-01-01T04:26:55;113.90;;;56.80;;
21152;SDS011;10734;44.792;20.482;2023-01-01T04:29:22;127.80;;;60.33;;
21152;SDS011;10734;44.792;20.482;2023-01-01T04:31:48;122.45;;;65.45;;
21152;SDS011;10734;44.792;20.482;2023-01-01T04:34:15;127.82;;;66.78;;
21152;SDS011;10734;44.792;20.482;2023-01-01T04:36:41;147.48;;;75.80;;
21152;SDS011;10734;44.792;20.482;2023-01-01T04:39:08;142.48;;;75.45;;
21152;SDS011;10734;44.792;20.482;2023-01-01T04:41:34;146.55;;;74.60;;
21152;SDS011;10734;44.792;20.482;2023-01-01T04:44:01;135.30;;;67.95;;
21152;SDS011;10734;44.792;20.482;2023-01-01T04:46:27;137.50;;;70.25;;
21152;SDS011;10734;44.792;20.482;2023-01-01T04:48:54;117.53;;;60.83;;
21152;SDS011;10734;44.792;20.482;2023-01-01T04:51:20;112.50;;;57.42;;
21152;SDS011;10734;44.792;20.482;2023-01-01T04:53:47;103.38;;;52.00;;
21152;SDS011;10734;44.792;20.482;2023-01-01T04:56:18;92.38;;;47.28;;
21152;SDS011;10734;44.792;20.482;2023-01-01T04:58:45;77.57;;;39.90;;
21152;SDS011;10734;44.792;20.482;2023-01-01T05:01:22;68.03;;;35.85;;
21152;SDS011;10734;44.792;20.482;2023-01-01T05:03:49;73.07;;;35.58;;
21152;SDS011;10734;44.792;20.482;2023-01-01T05:06:16;68.20;;;33.90;;
21152;SDS011;10734;44.792;20.482;2023-01-01T05:08:43;67.72;;;34.75;;
21152;SDS011;10734;44.792;20.482;2023-01-01T05:11:14;76.93;;;37.17;;
21152;SDS011;10734;44.792;20.482;2023-01-01T05:13:42;75.78;;;36.13;;
21152;SDS011;10734;44.792;20.482;2023-01-01T05:16:10;75.32;;;38.38;;
21152;SDS011;10734;44.792;20.482;2023-01-01T05:18:37;80.35;;;40.17;;
21152;SDS011;10734;44.792;20.482;2023-01-01T05:21:05;84.13;;;42.08;;
21152;SDS011;10734;44.792;20.482;2023-01-01T05:23:32;74.18;;;37.33;;
21152;SDS011;10734;44.792;20.482;2023-01-01T05:25:58;68.90;;;32.75;;
21152;SDS011;10734;44.792;20.482;2023-01-01T05:28:25;61.38;;;29.75;;
21152;SDS011;10734;44.792;20.482;2023-01-01T05:30:52;53.70;;;27.73;;
21152;SDS011;10734;44.792;20.482;2023-01-01T05:33:18;54.85;;;26.10;;
21152;SDS011;10734;44.792;20.482;2023-01-01T05:35:45;53.28;;;25.92;;
21152;SDS011;10734;44.792;20.482;2023-01-01T05:38:17;51.05;;;24.13;;
21152;SDS011;10734;44.792;20.482;2023-01-01T05:40:43;47.95;;;24.33;;
21152;SDS011;10734;44.792;20.482;2023-01-01T05:43:10;45.15;;;24.13;;
21152;SDS011;10734;44.792;20.482;2023-01-01T05:45:36;43.95;;;22.35;;
21152;SDS011;10734;44.792;20.482;2023-01-01T05:48:03;47.53;;;23.13;;
21152;SDS011;10734;44.792;20.482;2023-01-01T05:50:32;42.72;;;21.27;;
21152;SDS011;10734;44.792;20.482;2023-01-01T05:52:58;48.58;;;23.67;;
21152;SDS011;10734;44.792;20.482;2023-01-01T05:55:25;43.60;;;21.23;;
21152;SDS011;10734;44.792;20.482;2023-01-01T05:57:51;41.35;;;22.17;;
21152;SDS011;10734;44.792;20.482;2023-01-01T06:00:18;41.90;;;20.63;;
21152;SDS011;10734;44.792;20.482;2023-01-01T06:02:44;42.60;;;21.48;;
21152;SDS011;10734;44.792;20.482;2023-01-01T06:05:11;44.25;;;22.17;;
21152;SDS011;10734;44.792;20.482;2023-01-01T06:07:37;43.10;;;21.27;;
21152;SDS011;10734;44.792;20.482;2023-01-01T06:10:13;43.78;;;21.98;;
21152;SDS011;10734;44.792;20.482;2023-01-01T06:12:39;40.60;;;21.02;;
21152;SDS011;10734;44.792;20.482;2023-01-01T06:15:06;42.28;;;21.80;;
21152;SDS011;10734;44.792;20.482;2023-01-01T06:17:32;45.88;;;22.13;;
21152;SDS011;10734;44.792;20.482;2023-01-01T06:19:59;57.75;;;28.45;;
21152;SDS011;10734;44.792;20.482;2023-01-01T06:22:26;57.35;;;29.42;;
21152;SDS011;10734;44.792;20.482;2023-01-01T06:24:52;58.13;;;28.75;;
21152;SDS011;10734;44.792;20.482;2023-01-01T06:27:18;54.20;;;27.23;;
21152;SDS011;10734;44.792;20.482;2023-01-01T06:29:45;47.85;;;22.60;;
21152;SDS011;10734;44.792;20.482;2023-01-01T06:32:11;43.45;;;23.52;;
21152;SDS011;10734;44.792;20.482;2023-01-01T06:34:38;46.20;;;22.85;;
21152;SDS011;10734;44.792;20.482;2023-01-01T06:37:05;36.60;;;19.58;;
21152;SDS011;10734;44.792;20.482;2023-01-01T06:39:32;46.47;;;21.20;;
21152;SDS011;10734;44.792;20.482;2023-01-01T06:41:58;40.60;;;20.55;;
21152;SDS011;10734;44.792;20.482;2023-01-01T06:44:25;42.78;;;21.63;;
21152;SDS011;10734;44.792;20.482;2023-01-01T06:46:51;43.83;;;21.67;;
21152;SDS011;10734;44.792;20.482;2023-01-01T06:49:18;35.25;;;19.98;;
21152;SDS011;10734;44.792;20.482;2023-01-01T06:51:44;46.17;;;19.75;;
21152;SDS011;10734;44.792;20.482;2023-01-01T06:54:11;44.17;;;20.80;;
21152;SDS011;10734;44.792;20.482;2023-01-01T06:56:37;48.25;;;27.52;;
21152;SDS011;10734;44.792;20.482;2023-01-01T06:59:04;46.60;;;24.25;;
21152;SDS011;10734;44.792;20.482;2023-01-01T07:01:31;51.60;;;27.27;;
21152;SDS011;10734;44.792;20.482;2023-01-01T07:03:59;69.93;;;34.90;;
21152;SDS011;10734;44.792;20.482;2023-01-01T07:06:26;53.65;;;26.42;;
21152;SDS011;10734;44.792;20.482;2023-01-01T07:08:53;62.97;;;32.55;;
21152;SDS011;10734;44.792;20.482;2023-01-01T07:11:20;78.93;;;37.80;;
21152;SDS011;10734;44.792;20.482;2023-01-01T07:13:47;67.13;;;32.03;;
21152;SDS011;10734;44.792;20.482;2023-01-01T07:16:13;74.63;;;34.97;;
21152;SDS011;10734;44.792;20.482;2023-01-01T07:18:40;70.47;;;34.22;;
21152;SDS011;10734;44.792;20.482;2023-01-01T07:21:20;80.05;;;38.38;;
21152;SDS011;10734;44.792;20.482;2023-01-01T07:23:55;116.50;;;51.22;;
21152;SDS011;10734;44.792;20.482;2023-01-01T07:26:22;99.30;;;43.33;;
21152;SDS011;10734;44.792;20.482;2023-01-01T07:28:48;100.20;;;44.03;;
21152;SDS011;10734;44.792;20.482;2023-01-01T07:31:15;89.55;;;39.92;;
21152;SDS011;10734;44.792;20.482;2023-01-01T07:33:42;75.88;;;35.45;;
21152;SDS011;10734;44.792;20.482;2023-01-01T07:36:08;71.28;;;31.48;;
21152;SDS011;10734;44.792;20.482;2023-01-01T07:38:34;67.10;;;31.65;;
21152;SDS011;10734;44.792;20.482;2023-01-01T07:41:01;64.30;;;30.45;;
21152;SDS011;10734;44.792;20.482;2023-01-01T07:43:27;64.13;;;30.25;;
21152;SDS011;10734;44.792;20.482;2023-01-01T07:45:54;60.00;;;29.50;;
21152;SDS011;10734;44.792;20.482;2023-01-01T07:48:21;63.05;;;29.48;;
21152;SDS011;10734;44.792;20.482;2023-01-01T07:50:47;64.05;;;30.80;;
21152;SDS011;10734;44.792;20.482;2023-01-01T07:53:13;57.50;;;28.20;;
21152;SDS011;10734;44.792;20.482;2023-01-01T07:55:40;53.65;;;27.70;;
21152;SDS011;10734;44.792;20.482;2023-01-01T07:58:07;57.63;;;27.63;;
21152;SDS011;10734;44.792;20.482;2023-01-01T08:00:34;57.88;;;27.50;;
21152;SDS011;10734;44.792;20.482;2023-01-01T08:03:00;51.65;;;25.83;;
21152;SDS011;10734;44.792;20.482;2023-01-01T08:05:27;50.35;;;24.40;;
21152;SDS011;10734;44.792;20.482;2023-01-01T08:07:54;51.75;;;25.33;;
21152;SDS011;10734;44.792;20.482;2023-01-01T08:10:20;51.30;;;27.15;;
21152;SDS011;10734;44.792;20.482;2023-01-01T08:12:47;57.22;;;29.90;;
21152;SDS011;10734;44.792;20.482;2023-01-01T08:15:14;54.25;;;30.10;;
21152;SDS011;10734;44.792;20.482;2023-01-01T08:17:41;65.65;;;28.33;;
21152;SDS011;10734;44.792;20.482;2023-01-01T08:20:12;67.18;;;33.13;;
21152;SDS011;10734;44.792;20.482;2023-01-01T08:22:39;67.88;;;35.53;;
21152;SDS011;10734;44.792;20.482;2023-01-01T08:25:06;68.72;;;37.33;;
21152;SDS011;10734;44.792;20.482;2023-01-01T08:27:34;63.60;;;34.88;;
21152;SDS011;10734;44.792;20.482;2023-01-01T08:30:01;60.00;;;37.45;;
21152;SDS011;10734;44.792;20.482;2023-01-01T08:32:28;67.85;;;39.53;;
21152;SDS011;10734;44.792;20.482;2023-01-01T08:34:55;73.15;;;36.40;;
21152;SDS011;10734;44.792;20.482;2023-01-01T08:37:22;61.50;;;34.90;;
21152;SDS011;10734;44.792;20.482;2023-01-01T08:39:49;62.55;;;34.22;;
21152;SDS011;10734;44.792;20.482;2023-01-01T08:42:18;65.40;;;35.58;;
21152;SDS011;10734;44.792;20.482;2023-01-01T08:44:44;68.70;;;37.05;;
21152;SDS011;10734;44.792;20.482;2023-01-01T08:47:16;73.72;;;39.58;;
21152;SDS011;10734;44.792;20.482;2023-01-01T08:49:50;70.05;;;37.60;;
21152;SDS011;10734;44.792;20.482;2023-01-01T08:52:18;414.10;;;257.10;;
21152;SDS011;10734;44.792;20.482;2023-01-01T08:54:45;282.02;;;168.20;;
21152;SDS011;10734;44.792;20.482;2023-01-01T08:57:13;98.93;;;59.20;;
21152;SDS011;10734;44.792;20.482;2023-01-01T08:59:39;89.38;;;47.20;;
21152;SDS011;10734;44.792;20.482;2023-01-01T09:02:08;74.07;;;43.63;;
21152;SDS011;10734;44.792;20.482;2023-01-01T09:04:35;69.72;;;38.17;;
21152;SDS011;10734;44.792;20.482;2023-01-01T09:07:03;73.63;;;45.70;;
21152;SDS011;10734;44.792;20.482;2023-01-01T09:09:32;69.30;;;44.15;;
21152;SDS011;10734;44.792;20.482;2023-01-01T09:12:00;60.00;;;37.30;;
21152;SDS011;10734;44.792;20.482;2023-01-01T09:14:34;58.05;;;35.05;;
21152;SDS011;10734;44.792;20.482;2023-01-01T09:17:02;58.05;;;33.85;;
21152;SDS011;10734;44.792;20.482;2023-01-01T09:19:28;66.45;;;41.15;;
21152;SDS011;10734;44.792;20.482;2023-01-01T09:21:55;60.35;;;38.63;;
21152;SDS011;10734;44.792;20.482;2023-01-01T09:24:23;66.93;;;41.28;;
21152;SDS011;10734;44.792;20.482;2023-01-01T09:26:50;66.15;;;38.22;;
21152;SDS011;10734;44.792;20.482;2023-01-01T09:29:18;63.15;;;42.17;;
21152;SDS011;10734;44.792;20.482;2023-01-01T09:31:46;60.60;;;40.05;;
21152;SDS011;10734;44.792;20.482;2023-01-01T09:34:15;56.45;;;38.10;;
21152;SDS011;10734;44.792;20.482;2023-01-01T09:36:43;57.38;;;36.55;;
21152;SDS011;10734;44.792;20.482;2023-01-01T09:39:12;54.03;;;34.60;;
21152;SDS011;10734;44.792;20.482;2023-01-01T09:45:24;45.58;;;27.17;;
21152;SDS011;10734;44.792;20.482;2023-01-01T09:47:56;38.38;;;25.23;;
21152;SDS011;10734;44.792;20.482;2023-01-01T09:50:38;36.97;;;22.27;;
21152;SDS011;10734;44.792;20.482;2023-01-01T09:53:16;30.13;;;17.83;;
21152;SDS011;10734;44.792;20.482;2023-01-01T09:55:57;22.55;;;13.30;;
21152;SDS011;10734;44.792;20.482;2023-01-01T09:58:27;23.85;;;13.55;;
21152;SDS011;10734;44.792;20.482;2023-01-01T10:06:24;16.77;;;11.32;;
21152;SDS011;10734;44.792;20.482;2023-01-01T10:09:12;21.77;;;11.48;;
21152;SDS011;10734;44.792;20.482;2023-01-01T10:11:58;17.08;;;10.07;;
21152;SDS011;10734;44.792;20.482;2023-01-01T10:17:05;19.50;;;12.23;;
21152;SDS011;10734;44.792;20.482;2023-01-01T10:19:49;15.07;;;10.18;;
21152;SDS011;10734;44.792;20.482;2023-01-01T10:22:26;17.13;;;10.32;;
21152;SDS011;10734;44.792;20.482;2023-01-01T10:25:22;16.73;;;9.65;;
21152;SDS011;10734;44.792;20.482;2023-01-01T10:28:06;13.05;;;9.63;;
21152;SDS011;10734;44.792;20.482;2023-01-01T10:31:48;13.55;;;9.38;;
21152;SDS011;10734;44.792;20.482;2023-01-01T10:34:02;18.17;;;11.82;;
21152;SDS011;10734;44.792;20.482;2023-01-01T10:36:38;16.42;;;10.88;;
21152;SDS011;10734;44.792;20.482;2023-01-01T10:39:05;15.88;;;10.13;;
21152;SDS011;10734;44.792;20.482;2023-01-01T10:41:33;17.67;;;10.98;;
21152;SDS011;10734;44.792;20.482;2023-01-01T10:44:00;16.30;;;11.32;;
21152;SDS011;10734;44.792;20.482;2023-01-01T10:46:27;22.30;;;12.50;;
21152;SDS011;10734;44.792;20.482;2023-01-01T10:49:07;18.35;;;11.40;;
21152;SDS011;10734;44.792;20.482;2023-01-01T10:51:41;20.27;;;12.65;;
21152;SDS011;10734;44.792;20.482;2023-01-01T10:59:42;22.27;;;16.45;;
21152;SDS011;10734;44.792;20.482;2023-01-01T11:04:44;26.52;;;17.55;;
21152;SDS011;10734;44.792;20.482;2023-01-01T11:09:59;26.40;;;17.00;;
21152;SDS011;10734;44.792;20.482;2023-01-01T11:12:33;21.27;;;16.08;;
21152;SDS011;10734;44.792;20.482;2023-01-01T11:15:35;19.30;;;14.80;;
21152;SDS011;10734;44.792;20.482;2023-01-01T11:18:09;25.98;;;20.02;;
21152;SDS011;10734;44.792;20.482;2023-01-01T11:20:37;24.00;;;15.40;;
21152;SDS011;10734;44.792;20.482;2023-01-01T11:28:42;34.13;;;20.63;;
21152;SDS011;10734;44.792;20.482;2023-01-01T11:31:26;26.45;;;19.55;;
21152;SDS011;10734;44.792;20.482;2023-01-01T11:34:10;25.83;;;18.73;;
21152;SDS011;10734;44.792;20.482;2023-01-01T11:36:47;26.20;;;17.13;;
21152;SDS011;10734;44.792;20.482;2023-01-01T11:41:55;23.95;;;15.70;;
21152;SDS011;10734;44.792;20.482;2023-01-01T11:46:59;25.67;;;15.73;;
21152;SDS011;10734;44.792;20.482;2023-01-01T11:49:29;20.40;;;15.65;;
21152;SDS011;10734;44.792;20.482;2023-01-01T11:51:56;23.73;;;18.05;;
21152;SDS011;10734;44.792;20.482;2023-01-01T11:54:29;27.20;;;18.33;;
21152;SDS011;10734;44.792;20.482;2023-01-01T11:57:07;24.17;;;18.48;;
21152;SDS011;10734;44.792;20.482;2023-01-01T11:59:42;28.23;;;19.33;;
21152;SDS011;10734;44.792;20.482;2023-01-01T12:02:15;25.20;;;19.38;;
21152;SDS011;10734;44.792;20.482;2023-01-01T12:05:03;26.58;;;21.17;;
21152;SDS011;10734;44.792;20.482;2023-01-01T12:07:44;26.95;;;21.33;;
21152;SDS011;10734;44.792;20.482;2023-01-01T12:10:25;29.77;;;21.38;;
21152;SDS011;10734;44.792;20.482;2023-01-01T12:12:57;27.88;;;21.52;;
21152;SDS011;10734;44.792;20.482;2023-01-01T12:15:34;25.70;;;19.95;;
21152;SDS011;10734;44.792;20.482;2023-01-01T12:23:54;29.67;;;21.38;;
21152;SDS011;10734;44.792;20.482;2023-01-01T12:26:25;28.60;;;22.25;;
21152;SDS011;10734;44.792;20.482;2023-01-01T12:34:41;25.88;;;18.73;;
21152;SDS011;10734;44.792;20.482;2023-01-01T12:43:06;22.33;;;15.68;;
21152;SDS011;10734;44.792;20.482;2023-01-01T12:51:34;18.75;;;14.25;;
21152;SDS011;10734;44.792;20.482;2023-01-01T12:57:14;16.60;;;12.90;;
21152;SDS011;10734;44.792;20.482;2023-01-01T12:59:57;15.48;;;11.23;;
21152;SDS011;10734;44.792;20.482;2023-01-01T13:02:28;15.75;;;10.80;;
21152;SDS011;10734;44.792;20.482;2023-01-01T13:05:05;17.33;;;10.65;;
21152;SDS011;10734;44.792;20.482;2023-01-01T13:07:47;12.88;;;10.15;;
21152;SDS011;10734;44.792;20.482;2023-01-01T13:10:24;11.65;;;8.45;;
21152;SDS011;10734;44.792;20.482;2023-01-01T13:12:55;13.13;;;9.73;;
21152;SDS011;10734;44.792;20.482;2023-01-01T13:18:05;15.00;;;9.90;;
21152;SDS011;10734;44.792;20.482;2023-01-01T13:20:44;11.15;;;8.48;;
21152;SDS011;10734;44.792;20.482;2023-01-01T13:31:18;18.48;;;10.15;;
21152;SDS011;10734;44.792;20.482;2023-01-01T13:45:33;17.52;;;7.97;;
21152;SDS011;10734;44.792;20.482;2023-01-01T13:48:31;16.38;;;9.55;;
21152;SDS011;10734;44.792;20.482;2023-01-01T13:51:26;11.85;;;7.63;;
21152;SDS011;10734;44.792;20.482;2023-01-01T14:02:55;28.17;;;21.10;;
21152;SDS011;10734;44.792;20.482;2023-01-01T14:07:55;32.50;;;20.98;;
21152;SDS011;10734;44.792;20.482;2023-01-01T14:10:29;34.42;;;22.95;;
21152;SDS011;10734;44.792;20.482;2023-01-01T14:18:04;30.08;;;23.08;;
21152;SDS011;10734;44.792;20.482;2023-01-01T14:20:40;35.35;;;23.70;;
21152;SDS011;10734;44.792;20.482;2023-01-01T14:23:12;33.78;;;23.42;;
21152;SDS011;10734;44.792;20.482;2023-01-01T14:25:46;24.77;;;19.00;;
21152;SDS011;10734;44.792;20.482;2023-01-01T14:28:24;33.28;;;22.20;;
21152;SDS011;10734;44.792;20.482;2023-01-01T14:30:53;33.03;;;21.80;;
21152;SDS011;10734;44.792;20.482;2023-01-01T14:33:23;25.63;;;20.48;;
21152;SDS011;10734;44.792;20.482;2023-01-01T14:35:57;31.40;;;20.63;;
21152;SDS011;10734;44.792;20.482;2023-01-01T14:38:27;35.55;;;24.83;;
21152;SDS011;10734;44.792;20.482;2023-01-01T14:43:34;38.75;;;27.15;;
21152;SDS011;10734;44.792;20.482;2023-01-01T14:46:03;54.13;;;34.53;;
21152;SDS011;10734;44.792;20.482;2023-01-01T14:48:36;39.10;;;27.90;;
21152;SDS011;10734;44.792;20.482;2023-01-01T14:51:07;43.03;;;29.60;;
21152;SDS011;10734;44.792;20.482;2023-01-01T14:53:43;48.92;;;31.50;;
21152;SDS011;10734;44.792;20.482;2023-01-01T14:56:25;35.60;;;25.77;;
21152;SDS011;10734;44.792;20.482;2023-01-01T15:01:40;42.42;;;28.60;;
21152;SDS011;10734;44.792;20.482;2023-01-01T15:04:21;51.10;;;32.42;;
21152;SDS011;10734;44.792;20.482;2023-01-01T15:06:53;59.78;;;34.75;;
21152;SDS011;10734;44.792;20.482;2023-01-01T15:09:27;63.25;;;38.85;;
21152;SDS011;10734;44.792;20.482;2023-01-01T15:11:56;54.35;;;35.70;;
21152;SDS011;10734;44.792;20.482;2023-01-01T15:17:09;46.03;;;32.63;;
21152;SDS011;10734;44.792;20.482;2023-01-01T15:19:40;51.58;;;31.52;;
21152;SDS011;10734;44.792;20.482;2023-01-01T15:22:13;46.10;;;25.90;;
21152;SDS011;10734;44.792;20.482;2023-01-01T15:24:49;52.88;;;32.97;;
21152;SDS011;10734;44.792;20.482;2023-01-01T15:27:21;54.67;;;31.83;;
21152;SDS011;10734;44.792;20.482;2023-01-01T15:29:52;61.00;;;36.80;;
21152;SDS011;10734;44.792;20.482;2023-01-01T15:32:44;53.25;;;33.17;;
21152;SDS011;10734;44.792;20.482;2023-01-01T15:35:31;64.20;;;39.13;;
21152;SDS011;10734;44.792;20.482;2023-01-01T15:38:01;67.70;;;39.90;;
21152;SDS011;10734;44.792;20.482;2023-01-01T15:40:37;61.53;;;37.65;;
21152;SDS011;10734;44.792;20.482;2023-01-01T15:43:14;69.63;;;38.45;;
21152;SDS011;10734;44.792;20.482;2023-01-01T15:48:47;64.80;;;38.63;;
21152;SDS011;10734;44.792;20.482;2023-01-01T15:51:19;73.13;;;39.70;;
21152;SDS011;10734;44.792;20.482;2023-01-01T15:53:53;68.03;;;41.50;;
21152;SDS011;10734;44.792;20.482;2023-01-01T15:56:25;72.72;;;41.72;;
21152;SDS011;10734;44.792;20.482;2023-01-01T16:01:34;62.33;;;38.80;;
21152;SDS011;10734;44.792;20.482;2023-01-01T16:04:21;66.55;;;37.78;;
21152;SDS011;10734;44.792;20.482;2023-01-01T16:06:54;71.88;;;40.65;;
21152;SDS011;10734;44.792;20.482;2023-01-01T16:09:22;78.88;;;42.67;;
21152;SDS011;10734;44.792;20.482;2023-01-01T16:11:52;75.75;;;43.53;;
21152;SDS011;10734;44.792;20.482;2023-01-01T16:14:19;89.25;;;45.58;;
21152;SDS011;10734;44.792;20.482;2023-01-01T16:16:48;75.35;;;42.78;;
21152;SDS011;10734;44.792;20.482;2023-01-01T16:19:17;78.50;;;42.95;;
21152;SDS011;10734;44.792;20.482;2023-01-01T16:21:43;81.70;;;45.05;;
21152;SDS011;10734;44.792;20.482;2023-01-01T16:24:13;81.15;;;44.85;;
21152;SDS011;10734;44.792;20.482;2023-01-01T16:26:41;80.57;;;44.75;;
21152;SDS011;10734;44.792;20.482;2023-01-01T16:29:09;79.43;;;44.78;;
21152;SDS011;10734;44.792;20.482;2023-01-01T16:31:36;90.22;;;48.92;;
21152;SDS011;10734;44.792;20.482;2023-01-01T16:34:04;83.95;;;45.38;;
21152;SDS011;10734;44.792;20.482;2023-01-01T16:36:31;94.53;;;51.08;;
21152;SDS011;10734;44.792;20.482;2023-01-01T16:39:00;90.10;;;48.97;;
21152;SDS011;10734;44.792;20.482;2023-01-01T16:41:26;90.93;;;48.92;;
21152;SDS011;10734;44.792;20.482;2023-01-01T16:43:56;82.82;;;46.10;;
21152;SDS011;10734;44.792;20.482;2023-01-01T16:46:23;90.75;;;46.33;;
21152;SDS011;10734;44.792;20.482;2023-01-01T16:48:57;82.40;;;44.90;;